Share

Craig, AK

7:57 PM AKDT on April 23, 2014 (GMT -0800)
Annette Island (PANT) Elev 112 ft | 55.04 °N, 131.57 °W | Change Station

Current weather conditions updated 4 minutes ago

Clear
Clear
42 °F
Feels Like 42 °F
N
0
Wind Variable Wind from North
Sunrise 5:28 AM
Sunset 8:14 PM
Moon Waning Crescent

Tomorrow is forecast to be nearly the same temperature as today.

Pressure 29.68 in
Visibility 10.0 miles
Clouds Clear
Dew Point 34 °F
Humidity 73%
Rainfall 0.00 in
Snow Depth Not available.
UV 0 out of 16
Pollen Not available.
Air Quality Not available.
Flu Activity Sporadic
METAR PANT 240353Z AUTO 00000KT 10SM CLR 06/01 A2967 RMK AO2 SLP048 T00560011 TSNO

More Conditions Fewer Conditions

Pressure 29.68 in
Visibility 10.0 miles
Clouds Clear
Dew Point 34 °F
Humidity 73%
Rainfall 0.00 in
Snow Depth Not available.
UV 0 out of 16
Pollen Not available.
Air Quality Not available.
Flu Activity Sporadic
METAR PANT 240353Z AUTO 00000KT 10SM CLR 06/01 A2967 RMK AO2 SLP048 T00560011 TSNO

More Conditions Fewer Conditions

10-Day Weather Forecast

Almanac

Astronomy

Apr. 23, 2014 Rise Set
Actual Time 5:28 AM AKDT 8:14 PM AKDT
Civil Twilight 4:47 AM AKDT 8:56 PM AKDT
Nautical Twilight 3:52 AM AKDT 9:50 PM AKDT
Astronomical Twilight 2:42 AM AKDT 11:02 PM AKDT
Moon 3:07 AM AKDT (4/23) 1:32 PM AKDT (4/23)
Length of Visible Light 16h 09m
Length of Day
14h 45m
Tomorrow will be 4m 20s longer.
Waning Crescent, 30% of the Moon is Illuminated
Today
Waning Crescent
Apr 29
New
May 6
First Quarter
May 14
Full
May 21
Last Quarter

Today's Extremes

State Highs State Lows

Community

  • Balance
    Balance
  • Nestled In
    Nestled In
  • Stunning Sunrise
    Stunning Sunrise
  • spring flowers
    spring flowers
  • Earth Day Spectrum Ove' Blue
    Earth Day Spectrum Ove' Blue

WunderPhotos

Upload Photos

1,704,542 photos uploaded!

Nearby

Snow Depth

Station Depth Elevation
Long Lake 93 in 820 ft
Upper Tsaina River 50 in 1750 ft
Moraine 6 in 2100 ft
Nuka Glacier 27 in 1250 ft
Grouse Creek Divide 20 in 700 ft

Coastal Water Temperatures

Place Temperature
No Stations Reporting

Earthquake Activity

City Distance Mag. Time & Date
No recent earthquake activity has been reported nearby.
Minimum magnitude displayed is 2.5.

Nearby Weather Stations

Station Location Temp. Windchill Dew Point Humidity Wind Precip. Elev Updated Type
MISC Craig, Watertower Road, AK , Craig, AK 48 °F 47 °F 35 °F 60% North  at  4 mph 0.00 in / hr 95 ft 5:58 PM AKDT MADIS
RAWS HAIDA AK, Hydaburg, AK 40 °F 40 °F 39 °F 98% South  at  1 mph 0.00 in / hr 670 ft 6:55 PM AKDT MADIS

Show More Stations Show Fewer Stations

What do you think?

We're not finished. Please let us know what you like, what you don't like, and what you are still missing.